Terminal Aerodrome Forecast
Issued by NWS Newport/Morehead City, NC

Home | Current Version | Previous Version | Graphics & Text | Print | Product List | Glossary On
Versions: 1 2 3 4 5 6 7 8 9 10 11 12 13
000
FTUS42 KMHX 251137
TAFEWN
TAF
KEWN 251137Z 2512/2612 VRB04KT P6SM BKN150
     FM251900 VRB04KT P6SM VCTS SCT025 BKN060CB
     FM252300 VRB04KT P6SM BKN045
     FM260500 06005KT P6SM SCT250=

USA.gov is the U.S. government's official web portal to all federal, state and local government web resources and services.